createdAt,value
2023-09-03T00:00:30.614Z,99741.33
2023-09-03T00:02:57.275Z,99738.89
2023-09-03T00:05:23.854Z,99738.52
2023-09-03T00:07:50.978Z,99739.46
2023-09-03T00:10:17.622Z,99740.87
2023-09-03T00:12:44.133Z,99737.77
2023-09-03T00:15:10.647Z,99736.54
2023-09-03T00:17:37.254Z,99736.61
2023-09-03T00:20:04.079Z,99739.54
2023-09-03T00:22:30.933Z,99738.77
2023-09-03T00:24:57.331Z,99739.11
2023-09-03T00:27:23.736Z,99738.44
2023-09-03T00:29:50.402Z,99735.71
2023-09-03T00:32:16.958Z,99733.84
2023-09-03T00:34:43.429Z,99729.49
2023-09-03T00:37:09.881Z,99735.19
2023-09-03T00:39:36.744Z,99737.15
2023-09-03T00:42:03.554Z,99739.02
2023-09-03T00:44:30.201Z,99740.95
2023-09-03T00:46:56.879Z,99742.10
2023-09-03T00:49:23.931Z,99737.95
2023-09-03T00:51:51.470Z,99739.52
2023-09-03T00:54:17.878Z,99740.42
2023-09-03T00:56:45.099Z,99740.34
2023-09-03T00:59:11.582Z,99740.44
2023-09-03T01:01:39.215Z,99739.45
2023-09-03T01:04:05.962Z,99741.23
2023-09-03T01:06:32.541Z,99737.98
2023-09-03T01:08:58.985Z,99732.77
2023-09-03T01:12:23.767Z,99724.84
2023-09-03T01:14:50.721Z,99724.98
2023-09-03T01:17:46.708Z,99722.69
2023-09-03T01:20:18.732Z,99719.78
2023-09-03T01:22:45.140Z,99714.10
2023-09-03T01:25:17.596Z,99718.27
2023-09-03T01:27:52.044Z,99720.39
2023-09-03T01:30:19.163Z,99725.38
2023-09-03T01:32:46.938Z,99719.48
2023-09-03T01:35:13.372Z,99717.91
2023-09-03T01:37:40.006Z,99718.55
2023-09-03T01:40:07.258Z,99719.30
2023-09-03T01:42:33.763Z,99717.92
2023-09-03T01:45:00.905Z,99717.52
2023-09-03T01:47:46.163Z,99715.10
2023-09-03T01:50:27.952Z,99715.20
2023-09-03T01:53:14.689Z,99719.79
2023-09-03T01:55:42.588Z,99713.14
2023-09-03T01:58:10.676Z,99713.80
2023-09-03T02:00:37.794Z,99716.79
2023-09-03T02:03:04.524Z,99719.14
2023-09-03T02:05:31.132Z,99715.64
2023-09-03T02:07:57.628Z,99720.02
2023-09-03T02:10:24.077Z,99716.26
2023-09-03T02:12:50.668Z,99718.46
2023-09-03T02:15:17.128Z,99721.45
2023-09-03T02:17:43.822Z,99722.05
2023-09-03T02:20:10.877Z,99721.14
2023-09-03T02:22:37.454Z,99724.79
2023-09-03T02:25:04.241Z,99721.38
2023-09-03T02:27:30.893Z,99719.55
2023-09-03T02:29:57.489Z,99720.98
2023-09-03T02:32:26.031Z,99718.27
2023-09-03T02:34:52.653Z,99717.97
2023-09-03T02:37:19.325Z,99724.58
2023-09-03T02:39:45.947Z,99727.95
2023-09-03T02:42:12.415Z,99729.20
2023-09-03T02:44:39.023Z,99728.77
2023-09-03T02:47:05.569Z,99727.44
2023-09-03T02:49:32.162Z,99721.39
2023-09-03T02:51:58.812Z,99717.63
2023-09-03T02:54:25.546Z,99717.34
2023-09-03T02:56:52.124Z,99716.73
2023-09-03T02:59:18.747Z,99719.93
2023-09-03T03:01:45.551Z,99720.13
2023-09-03T03:04:12.564Z,99718.43
2023-09-03T03:06:39.078Z,99721.22
2023-09-03T03:09:05.793Z,99724.70
2023-09-03T03:11:33.264Z,99726.83
2023-09-03T03:14:00.830Z,99730.18
2023-09-03T03:16:31.267Z,99729.02
2023-09-03T03:18:58.069Z,99731.58
2023-09-03T03:21:27.722Z,99729.92
2023-09-03T03:24:00.662Z,99732.48
2023-09-03T03:26:31.831Z,99733.76
2023-09-03T03:28:58.472Z,99733.05
2023-09-03T03:31:25.565Z,99726.98
2023-09-03T03:33:53.064Z,99722.80
2023-09-03T03:36:22.104Z,99721.70
2023-09-03T03:38:48.876Z,99719.30
2023-09-03T03:41:18.158Z,99719.88
2023-09-03T03:43:46.145Z,99721.23
2023-09-03T03:46:15.009Z,99722.69
2023-09-03T03:48:42.124Z,99723.45
2023-09-03T03:51:08.843Z,99725.17
2023-09-03T03:53:36.059Z,99720.25
2023-09-03T03:56:07.758Z,99723.43
2023-09-03T03:58:39.227Z,99724.77
2023-09-03T04:01:12.261Z,99729.55
2023-09-03T04:03:38.980Z,99725.20
2023-09-03T04:06:05.460Z,99722.89
2023-09-03T04:08:32.855Z,99721.59
2023-09-03T04:11:03.725Z,99723.16
2023-09-03T04:13:30.217Z,99714.17
2023-09-03T04:15:57.640Z,99713.15
2023-09-03T04:18:24.871Z,99714.17
2023-09-03T04:20:56.357Z,99713.17
2023-09-03T04:23:24.550Z,99709.45
2023-09-03T04:25:54.918Z,99706.70
2023-09-03T04:28:21.736Z,99707.08
2023-09-03T04:30:56.357Z,99710.91
2023-09-03T04:33:23.558Z,99712.30
2023-09-03T04:36:01.297Z,99710.07
2023-09-03T04:38:30.274Z,99708.03
2023-09-03T04:40:57.201Z,99708.79
2023-09-03T04:43:25.334Z,99707.95
2023-09-03T04:45:53.144Z,99711.06
2023-09-03T04:48:21.638Z,99708.23
2023-09-03T04:50:48.663Z,99704.87
2023-09-03T04:53:15.624Z,99701.14
2023-09-03T04:55:43.987Z,99699.61
2023-09-03T04:58:11.093Z,99706.02
2023-09-03T05:00:37.826Z,99700.66
2023-09-03T05:03:07.106Z,99696.45
2023-09-03T05:05:42.715Z,99696.88
2023-09-03T05:08:10.441Z,99699.70
2023-09-03T05:10:39.027Z,99696.69
2023-09-03T05:13:06.019Z,99691.85
2023-09-03T05:15:34.599Z,99684.17
2023-09-03T05:18:02.097Z,99685.04
2023-09-03T05:20:29.972Z,99684.18
2023-09-03T05:22:56.597Z,99686.23
2023-09-03T05:25:23.336Z,99678.10
2023-09-03T05:27:50.048Z,99672.36
2023-09-03T05:30:16.776Z,99665.15
2023-09-03T05:32:43.462Z,99659.81
2023-09-03T05:35:10.424Z,99653.23
2023-09-03T05:37:37.182Z,99643.77
2023-09-03T05:40:05.198Z,99632.34
2023-09-03T05:42:32.700Z,99628.25
2023-09-03T05:44:59.770Z,99622.77
2023-09-03T05:47:26.939Z,99615.61
2023-09-03T05:49:57.764Z,99608.20
2023-09-03T05:52:25.209Z,99603.66
2023-09-03T05:54:51.956Z,99602.42
2023-09-03T05:57:19.035Z,99598.25
2023-09-03T05:59:50.567Z,99596.71
2023-09-03T06:02:18.717Z,99599.66
2023-09-03T06:04:45.887Z,99597.69
2023-09-03T06:07:12.742Z,99600.91
2023-09-03T06:09:39.729Z,99600.92
2023-09-03T06:12:06.478Z,99595.46
2023-09-03T06:14:33.120Z,99593.25
2023-09-03T06:17:00.534Z,99584.32
2023-09-03T06:19:27.055Z,99579.16
2023-09-03T06:21:53.664Z,99578.70
2023-09-03T06:24:20.145Z,99576.07
2023-09-03T06:26:46.839Z,99575.19
2023-09-03T06:29:13.440Z,99573.91
2023-09-03T06:31:40.028Z,99569.85
2023-09-03T06:34:06.531Z,99572.27
2023-09-03T06:36:33.176Z,99570.04
2023-09-03T06:38:59.901Z,99572.64
2023-09-03T06:41:27.091Z,99572.67
2023-09-03T06:43:53.708Z,99573.58
2023-09-03T06:46:20.413Z,99573.45
2023-09-03T06:48:46.937Z,99571.10
2023-09-03T06:51:13.610Z,99567.62
2023-09-03T06:53:40.216Z,99565.58
2023-09-03T06:56:06.978Z,99565.25
2023-09-03T06:58:33.634Z,99564.07
2023-09-03T07:01:02.646Z,99560.50
2023-09-03T07:03:29.534Z,99561.48
2023-09-03T07:05:56.149Z,99564.00
2023-09-03T07:08:22.984Z,99564.91
2023-09-03T07:10:49.808Z,99567.05
2023-09-03T07:13:16.436Z,99570.40
2023-09-03T07:15:44.476Z,99572.45
2023-09-03T07:18:11.261Z,99572.98
2023-09-03T07:20:37.867Z,99577.04
2023-09-03T07:23:04.608Z,99582.43
2023-09-03T07:25:32.084Z,99584.70
2023-09-03T07:27:58.628Z,99591.81
2023-09-03T07:30:25.451Z,99592.88
2023-09-03T07:32:52.097Z,99596.00
2023-09-03T07:35:19.123Z,99599.74
2023-09-03T07:37:46.863Z,99599.67
2023-09-03T07:40:13.471Z,99603.27
2023-09-03T07:42:40.357Z,99603.33
2023-09-03T07:45:07.782Z,99599.46
2023-09-03T07:47:34.402Z,99594.52
2023-09-03T07:50:01.745Z,99590.16
2023-09-03T07:52:28.676Z,99588.08
2023-09-03T07:54:55.204Z,99593.34
2023-09-03T07:57:21.727Z,99595.95
2023-09-03T07:59:48.213Z,99595.73
2023-09-03T08:02:14.797Z,99599.20
2023-09-03T08:04:42.772Z,99606.74
2023-09-03T08:07:09.534Z,99605.66
2023-09-03T08:09:36.536Z,99604.42
2023-09-03T08:12:03.115Z,99601.52
2023-09-03T08:14:30.255Z,99600.33
2023-09-03T08:16:57.027Z,99602.16
2023-09-03T08:19:23.464Z,99601.15
2023-09-03T08:21:50.116Z,99601.69
2023-09-03T08:24:16.892Z,99597.05
2023-09-03T08:26:43.399Z,99594.36
2023-09-03T08:29:10.156Z,99595.57
2023-09-03T08:31:36.851Z,99593.58
2023-09-03T08:34:03.661Z,99595.34
2023-09-03T08:36:30.491Z,99598.04
2023-09-03T08:38:57.421Z,99599.97
2023-09-03T08:41:24.222Z,99595.18
2023-09-03T08:43:53.997Z,99594.78
2023-09-03T08:46:20.832Z,99596.70
2023-09-03T08:48:50.574Z,99591.50
2023-09-03T08:51:18.018Z,99587.33
2023-09-03T08:53:44.989Z,99585.41
2023-09-03T08:56:11.740Z,99589.02
2023-09-03T08:58:38.897Z,99587.66
2023-09-03T09:01:06.610Z,99587.27
2023-09-03T09:03:33.315Z,99586.56
2023-09-03T09:05:59.916Z,99586.40
2023-09-03T09:08:26.466Z,99582.38
2023-09-03T09:10:52.968Z,99578.70
2023-09-03T09:13:22.996Z,99575.70
2023-09-03T09:15:49.693Z,99569.13
2023-09-03T09:18:16.292Z,99563.96
2023-09-03T09:20:42.787Z,99564.27
2023-09-03T09:23:09.484Z,99565.55
2023-09-03T09:25:36.243Z,99566.80
2023-09-03T09:28:12.768Z,99562.63
2023-09-03T09:30:56.262Z,99557.70
2023-09-03T09:33:23.724Z,99556.92
2023-09-03T09:35:50.650Z,99560.45
2023-09-03T09:38:17.771Z,99565.70
2023-09-03T09:40:44.470Z,99560.96
2023-09-03T09:43:11.032Z,99559.51
2023-09-03T09:45:51.141Z,99557.55
2023-09-03T09:48:17.711Z,99558.47
2023-09-03T09:50:45.894Z,99565.85
2023-09-03T09:53:27.920Z,99565.25
2023-09-03T09:56:01.452Z,99559.16
2023-09-03T09:58:37.901Z,99560.21
2023-09-03T10:01:05.217Z,99557.51
2023-09-03T10:03:45.606Z,99554.84
2023-09-03T10:06:15.875Z,99555.12
2023-09-03T10:08:43.230Z,99554.52
2023-09-03T10:11:09.810Z,99545.95
2023-09-03T10:13:39.499Z,99544.57
2023-09-03T10:16:09.886Z,99552.45
2023-09-03T10:18:46.772Z,99556.52
2023-09-03T10:21:14.702Z,99559.75
2023-09-03T10:23:47.622Z,99559.15
2023-09-03T10:26:14.394Z,99559.52
2023-09-03T10:28:42.298Z,99564.90
2023-09-03T10:31:08.873Z,99567.52
2023-09-03T10:33:35.735Z,99575.59
2023-09-03T10:36:18.538Z,99582.33
2023-09-03T10:38:45.306Z,99593.60
2023-09-03T10:41:20.799Z,99594.14
2023-09-03T10:43:58.452Z,99589.66
2023-09-03T10:46:26.133Z,99587.96
2023-09-03T10:48:54.403Z,99594.38
2023-09-03T10:51:40.613Z,99599.70
2023-09-03T10:54:25.395Z,99594.45
2023-09-03T10:57:07.721Z,99596.59
2023-09-03T10:59:59.035Z,99593.10
2023-09-03T11:02:29.151Z,99596.41
2023-09-03T11:05:13.763Z,99592.95
2023-09-03T11:07:44.311Z,99594.80
2023-09-03T11:10:28.219Z,99593.38
2023-09-03T11:12:54.978Z,99585.11
2023-09-03T11:15:21.698Z,99582.97
2023-09-03T11:17:55.365Z,99577.45
2023-09-03T11:20:49.333Z,99576.13
2023-09-03T11:23:17.999Z,99575.44
2023-09-03T11:25:44.974Z,99579.24
2023-09-03T11:28:14.708Z,99579.37
2023-09-03T11:30:45.137Z,99576.35
2023-09-03T11:33:24.245Z,99576.52
2023-09-03T11:35:50.902Z,99572.11
2023-09-03T11:38:17.431Z,99568.10
2023-09-03T11:40:43.903Z,99568.92
2023-09-03T11:43:10.716Z,99566.41
2023-09-03T11:45:37.367Z,99564.86
2023-09-03T11:48:07.044Z,99567.56
2023-09-03T11:50:35.215Z,99568.52
2023-09-03T11:53:05.270Z,99569.05
2023-09-03T11:55:42.501Z,99568.25
2023-09-03T11:58:10.283Z,99563.95
2023-09-03T12:00:36.881Z,99563.71
2023-09-03T12:03:04.107Z,99564.06
2023-09-03T12:05:32.745Z,99562.64
2023-09-03T12:08:03.451Z,99563.98
2023-09-03T12:10:31.821Z,99561.81
2023-09-03T12:13:00.069Z,99549.50
2023-09-03T12:15:26.872Z,99545.55
2023-09-03T12:17:53.501Z,99538.17
2023-09-03T12:20:33.048Z,99530.20
2023-09-03T12:23:09.899Z,99526.02
2023-09-03T12:25:36.580Z,99524.08
2023-09-03T12:28:04.775Z,99525.00
2023-09-03T12:30:56.872Z,99519.63
2023-09-03T12:33:47.720Z,99512.02
2023-09-03T12:36:18.655Z,99502.35
2023-09-03T12:38:52.616Z,99501.52
2023-09-03T12:41:20.174Z,99498.20
2023-09-03T12:43:47.044Z,99495.78
2023-09-03T12:46:13.660Z,99493.72
2023-09-03T12:48:45.023Z,99495.89
2023-09-03T12:51:12.756Z,99492.73
2023-09-03T12:53:40.568Z,99489.27
2023-09-03T12:56:07.152Z,99485.38
2023-09-03T12:58:33.816Z,99482.46
2023-09-03T13:01:00.832Z,99483.08
2023-09-03T13:03:28.551Z,99483.98
2023-09-03T13:05:56.207Z,99484.13
2023-09-03T13:08:23.148Z,99481.13
2023-09-03T13:10:50.645Z,99474.27
2023-09-03T13:13:17.686Z,99475.12
2023-09-03T13:15:45.190Z,99477.91
2023-09-03T13:18:12.219Z,99477.75
2023-09-03T13:20:38.666Z,99478.96
2023-09-03T13:23:05.199Z,99477.20
2023-09-03T13:25:34.901Z,99475.24
2023-09-03T13:28:02.061Z,99470.86
2023-09-03T13:30:29.100Z,99470.33
2023-09-03T13:32:56.370Z,99471.20
2023-09-03T13:35:22.922Z,99468.52
2023-09-03T13:37:49.473Z,99466.28
2023-09-03T13:40:16.316Z,99462.96
2023-09-03T13:42:43.734Z,99465.73
2023-09-03T13:45:10.762Z,99464.46
2023-09-03T13:47:37.394Z,99460.95
2023-09-03T13:50:06.305Z,99462.39
2023-09-03T13:52:33.716Z,99460.52
2023-09-03T13:55:00.434Z,99457.44
2023-09-03T13:57:26.958Z,99458.18
2023-09-03T13:59:54.915Z,99459.52
2023-09-03T14:02:23.591Z,99458.67
2023-09-03T14:04:50.357Z,99459.34
2023-09-03T14:07:16.780Z,99458.52
2023-09-03T14:09:43.346Z,99459.52
2023-09-03T14:12:09.962Z,99450.48
2023-09-03T14:14:36.448Z,99449.73
2023-09-03T14:17:03.205Z,99451.64
2023-09-03T14:19:29.928Z,99455.30
2023-09-03T14:21:56.405Z,99455.18
2023-09-03T14:24:23.010Z,99454.30
2023-09-03T14:26:49.550Z,99452.30
2023-09-03T14:29:16.931Z,99454.38
2023-09-03T14:31:51.157Z,99456.77
2023-09-03T14:34:17.712Z,99459.36
2023-09-03T14:36:45.213Z,99462.63
2023-09-03T14:39:12.016Z,99460.41
2023-09-03T14:41:39.007Z,99463.30
2023-09-03T14:44:05.644Z,99465.27
2023-09-03T14:46:32.330Z,99465.22
2023-09-03T14:48:58.825Z,99465.20
2023-09-03T14:51:25.625Z,99469.35
2023-09-03T14:53:52.448Z,99468.30
2023-09-03T14:56:20.494Z,99472.98
2023-09-03T14:58:47.438Z,99470.74
2023-09-03T15:01:14.693Z,99471.20
2023-09-03T15:03:41.286Z,99469.14
2023-09-03T15:06:07.946Z,99469.05
2023-09-03T15:08:35.049Z,99474.21
2023-09-03T15:11:15.549Z,99475.89
2023-09-03T15:13:42.923Z,99478.41
2023-09-03T15:16:09.998Z,99482.52
2023-09-03T15:18:37.304Z,99482.23
2023-09-03T15:21:04.556Z,99483.53
2023-09-03T15:23:31.396Z,99483.10
2023-09-03T15:25:58.232Z,99478.29
2023-09-03T15:28:25.177Z,99480.05
2023-09-03T15:30:51.944Z,99477.72
2023-09-03T15:33:19.157Z,99475.67
2023-09-03T15:35:46.019Z,99476.32
2023-09-03T15:38:13.181Z,99469.42
2023-09-03T15:40:40.517Z,99472.70
2023-09-03T15:43:07.184Z,99475.37
2023-09-03T15:45:34.642Z,99474.11
2023-09-03T15:48:01.952Z,99476.09
2023-09-03T15:50:29.464Z,99480.38
2023-09-03T15:52:55.970Z,99486.14
2023-09-03T15:55:22.779Z,99489.48
2023-09-03T15:57:49.419Z,99489.65
2023-09-03T16:00:15.965Z,99491.07
2023-09-03T16:02:43.394Z,99491.83
2023-09-03T16:05:10.277Z,99492.27
2023-09-03T16:07:37.200Z,99491.73
2023-09-03T16:10:04.612Z,99493.03
2023-09-03T16:12:31.227Z,99489.48
2023-09-03T16:14:58.701Z,99492.05
2023-09-03T16:17:25.149Z,99493.48
2023-09-03T16:19:51.791Z,99490.05
2023-09-03T16:22:18.265Z,99484.56
2023-09-03T16:24:45.195Z,99490.27
2023-09-03T16:27:12.058Z,99487.79
2023-09-03T16:29:38.647Z,99485.31
2023-09-03T16:32:05.549Z,99480.23
2023-09-03T16:34:33.043Z,99480.30
2023-09-03T16:36:59.916Z,99485.52
2023-09-03T16:39:26.392Z,99487.64
2023-09-03T16:41:53.021Z,99492.02
2023-09-03T16:44:19.889Z,99491.77
2023-09-03T16:46:46.350Z,99491.23
2023-09-03T16:49:13.404Z,99494.27
2023-09-03T16:51:40.786Z,99495.55
2023-09-03T16:54:07.497Z,99497.91
2023-09-03T16:56:34.569Z,99502.15
2023-09-03T16:59:01.284Z,99506.17
2023-09-03T17:01:28.105Z,99510.61
2023-09-03T17:03:54.786Z,99513.60
2023-09-03T17:06:21.637Z,99517.09
2023-09-03T17:08:48.426Z,99522.08
2023-09-03T17:11:15.128Z,99522.33
2023-09-03T17:13:41.565Z,99523.66
2023-09-03T17:16:13.589Z,99524.05
2023-09-03T17:18:40.201Z,99526.48
2023-09-03T17:21:06.761Z,99526.41
2023-09-03T17:23:39.133Z,99524.92
2023-09-03T17:26:15.777Z,99529.86
2023-09-03T17:28:50.448Z,99531.29
2023-09-03T17:31:17.111Z,99527.96
2023-09-03T17:33:43.650Z,99531.79
2023-09-03T17:36:10.082Z,99531.24
2023-09-03T17:38:36.714Z,99536.13
2023-09-03T17:41:03.198Z,99537.20
2023-09-03T17:43:31.003Z,99540.20
2023-09-03T17:45:57.538Z,99544.11
2023-09-03T17:48:25.933Z,99550.39
2023-09-03T17:50:52.769Z,99549.62
2023-09-03T17:53:19.227Z,99552.48
2023-09-03T17:55:45.740Z,99550.91
2023-09-03T17:58:12.241Z,99551.48
2023-09-03T18:00:40.445Z,99557.45
2023-09-03T18:03:07.042Z,99555.08
2023-09-03T18:05:33.816Z,99556.05
2023-09-03T18:08:00.461Z,99557.05
2023-09-03T18:10:30.730Z,99555.81
2023-09-03T18:12:57.372Z,99551.97
2023-09-03T18:15:23.889Z,99551.65
2023-09-03T18:17:50.519Z,99554.62
2023-09-03T18:20:17.427Z,99554.92
2023-09-03T18:22:44.246Z,99558.46
2023-09-03T18:25:11.078Z,99555.28
2023-09-03T18:27:37.796Z,99552.17
2023-09-03T18:30:07.294Z,99552.33
2023-09-03T18:32:34.191Z,99550.74
2023-09-03T18:35:01.145Z,99549.81
2023-09-03T18:37:27.988Z,99546.88
2023-09-03T18:39:54.991Z,99540.95
2023-09-03T18:42:21.819Z,99540.59
2023-09-03T18:44:48.504Z,99540.21
2023-09-03T18:47:15.089Z,99540.27
2023-09-03T18:49:41.756Z,99546.89
2023-09-03T18:52:08.237Z,99547.97
2023-09-03T18:54:34.817Z,99548.08
2023-09-03T18:57:01.542Z,99545.34
2023-09-03T18:59:28.325Z,99547.36
2023-09-03T19:01:55.055Z,99546.55
2023-09-03T19:04:23.413Z,99548.55
2023-09-03T19:06:54.145Z,99550.27
2023-09-03T19:09:20.906Z,99552.45
2023-09-03T19:11:47.560Z,99554.46
2023-09-03T19:14:15.135Z,99554.88
2023-09-03T19:16:41.771Z,99549.81
2023-09-03T19:19:08.510Z,99548.97
2023-09-03T19:21:35.134Z,99553.91
2023-09-03T19:24:05.104Z,99553.02
2023-09-03T19:26:32.109Z,99555.55
2023-09-03T19:29:00.621Z,99554.08
2023-09-03T19:31:27.462Z,99557.06
2023-09-03T19:33:54.091Z,99560.66
2023-09-03T19:36:20.647Z,99560.78
2023-09-03T19:38:47.384Z,99552.73
2023-09-03T19:41:14.058Z,99556.36
2023-09-03T19:43:40.591Z,99559.16
2023-09-03T19:46:07.167Z,99558.27
2023-09-03T19:48:36.312Z,99560.73
2023-09-03T19:51:02.981Z,99564.85
2023-09-03T19:53:30.774Z,99569.81
2023-09-03T19:56:04.373Z,99566.86
2023-09-03T19:58:32.671Z,99566.00
2023-09-03T20:01:05.726Z,99566.49
2023-09-03T20:03:33.253Z,99568.71
2023-09-03T20:06:02.943Z,99569.75
2023-09-03T20:08:32.786Z,99569.52
2023-09-03T20:11:03.178Z,99567.52
2023-09-03T20:13:29.803Z,99565.95
2023-09-03T20:15:56.867Z,99568.69
2023-09-03T20:18:23.684Z,99569.83
2023-09-03T20:20:54.263Z,99569.77
2023-09-03T20:23:21.037Z,99574.25
2023-09-03T20:26:03.472Z,99575.67
2023-09-03T20:28:43.352Z,99577.23
2023-09-03T20:31:13.112Z,99578.00
2023-09-03T20:33:39.830Z,99577.71
2023-09-03T20:36:06.648Z,99584.17
2023-09-03T20:38:33.315Z,99585.67
2023-09-03T20:41:01.600Z,99580.17
2023-09-03T20:43:28.449Z,99584.16
2023-09-03T20:45:57.802Z,99587.52
2023-09-03T20:48:24.622Z,99586.07
2023-09-03T20:50:51.456Z,99589.60
2023-09-03T20:53:18.110Z,99585.88
2023-09-03T20:55:52.259Z,99583.62
2023-09-03T20:58:19.124Z,99580.36
2023-09-03T21:00:45.845Z,99580.61
2023-09-03T21:03:12.479Z,99587.98
2023-09-03T21:05:39.031Z,99593.70
2023-09-03T21:08:05.772Z,99589.59
2023-09-03T21:10:32.668Z,99595.09
2023-09-03T21:12:59.191Z,99591.55
2023-09-03T21:15:25.691Z,99592.13
2023-09-03T21:17:52.285Z,99595.16
2023-09-03T21:20:18.901Z,99602.02
2023-09-03T21:22:45.376Z,99603.76
2023-09-03T21:25:12.057Z,99607.43
2023-09-03T21:27:38.963Z,99607.48
2023-09-03T21:30:06.212Z,99607.83
2023-09-03T21:32:34.612Z,99609.59
2023-09-03T21:35:09.963Z,99611.84
2023-09-03T21:37:44.974Z,99615.34
2023-09-03T21:40:13.637Z,99624.86
2023-09-03T21:42:40.344Z,99624.52
2023-09-03T21:45:07.761Z,99623.52
2023-09-03T21:47:34.800Z,99623.41
2023-09-03T21:50:01.481Z,99627.16
2023-09-03T21:52:28.521Z,99623.42
2023-09-03T21:54:55.003Z,99624.13
2023-09-03T21:57:21.603Z,99623.27
2023-09-03T21:59:48.103Z,99623.58
2023-09-03T22:02:14.548Z,99625.14
2023-09-03T22:04:41.049Z,99625.70
2023-09-03T22:07:07.585Z,99624.96
2023-09-03T22:09:35.034Z,99625.77
2023-09-03T22:12:01.831Z,99628.27
2023-09-03T22:14:30.113Z,99625.20
2023-09-03T22:16:56.687Z,99625.89
2023-09-03T22:19:26.642Z,99626.11
2023-09-03T22:21:55.848Z,99626.09
2023-09-03T22:24:22.422Z,99634.67
2023-09-03T22:26:48.964Z,99633.94
2023-09-03T22:29:15.538Z,99632.52
2023-09-03T22:31:42.219Z,99633.62
2023-09-03T22:34:08.781Z,99635.27
2023-09-03T22:36:35.258Z,99633.95
2023-09-03T22:39:02.414Z,99638.19
2023-09-03T22:41:29.156Z,99641.80
2023-09-03T22:43:55.761Z,99642.16
2023-09-03T22:46:23.001Z,99646.73
2023-09-03T22:48:49.431Z,99648.87
2023-09-03T22:51:18.665Z,99647.85
2023-09-03T22:53:45.101Z,99647.23
2023-09-03T22:56:11.614Z,99648.02
2023-09-03T22:58:39.371Z,99647.36
2023-09-03T23:01:06.138Z,99650.50
2023-09-03T23:03:32.746Z,99653.83
2023-09-03T23:05:59.342Z,99655.09
2023-09-03T23:08:25.990Z,99658.70
2023-09-03T23:10:52.513Z,99659.59
2023-09-03T23:13:19.131Z,99656.49
2023-09-03T23:15:45.779Z,99661.52
2023-09-03T23:18:12.427Z,99664.67
2023-09-03T23:20:39.406Z,99664.40
2023-09-03T23:23:05.977Z,99666.36
2023-09-03T23:25:32.513Z,99664.92
2023-09-03T23:27:59.017Z,99668.20
2023-09-03T23:30:26.262Z,99668.69
2023-09-03T23:32:52.834Z,99669.88
2023-09-03T23:35:19.563Z,99669.91
2023-09-03T23:37:46.513Z,99670.73
2023-09-03T23:40:13.108Z,99672.75
2023-09-03T23:42:39.681Z,99675.65
2023-09-03T23:45:06.734Z,99675.03
2023-09-03T23:47:33.383Z,99674.60
2023-09-03T23:49:59.937Z,99676.90
2023-09-03T23:52:26.523Z,99680.80
2023-09-03T23:54:53.104Z,99681.93
2023-09-03T23:57:19.591Z,99681.86
2023-09-03T23:59:46.229Z,99686.66
